sensor_id;sensor_type;location;lat;lon;timestamp;pressure;altitude;pressure_sealevel;temperature;humidity
55277;BME280;41136;51.478;-2.610;2024-01-27T00:00:59;102519.64;;;8.35;82.28
55277;BME280;41136;51.478;-2.610;2024-01-27T00:03:24;102515.57;;;8.42;81.90
55277;BME280;41136;51.478;-2.610;2024-01-27T00:05:49;102519.55;;;9.08;82.06
55277;BME280;41136;51.478;-2.610;2024-01-27T00:08:15;102516.39;;;8.81;81.33
55277;BME280;41136;51.478;-2.610;2024-01-27T00:10:40;102519.02;;;8.89;81.55
55277;BME280;41136;51.478;-2.610;2024-01-27T00:13:06;102510.56;;;8.57;82.85
55277;BME280;41136;51.478;-2.610;2024-01-27T00:15:31;102507.62;;;8.30;82.21
55277;BME280;41136;51.478;-2.610;2024-01-27T00:17:57;102507.75;;;8.69;82.83
55277;BME280;41136;51.478;-2.610;2024-01-27T00:20:22;102506.99;;;8.61;82.20
55277;BME280;41136;51.478;-2.610;2024-01-27T00:22:47;102508.36;;;8.59;82.89
55277;BME280;41136;51.478;-2.610;2024-01-27T00:25:12;102509.61;;;8.45;82.38
55277;BME280;41136;51.478;-2.610;2024-01-27T00:27:38;102507.12;;;8.92;81.60
55277;BME280;41136;51.478;-2.610;2024-01-27T00:30:04;102509.02;;;8.89;81.40
55277;BME280;41136;51.478;-2.610;2024-01-27T00:32:29;102507.92;;;8.81;80.97
55277;BME280;41136;51.478;-2.610;2024-01-27T00:34:54;102501.76;;;8.41;81.21
55277;BME280;41136;51.478;-2.610;2024-01-27T00:37:19;102504.24;;;8.30;80.36
55277;BME280;41136;51.478;-2.610;2024-01-27T00:39:45;102500.09;;;8.70;81.30
55277;BME280;41136;51.478;-2.610;2024-01-27T00:42:10;102496.48;;;8.50;81.02
55277;BME280;41136;51.478;-2.610;2024-01-27T00:44:36;102491.88;;;8.67;81.57
55277;BME280;41136;51.478;-2.610;2024-01-27T00:47:02;102491.40;;;8.98;80.74
55277;BME280;41136;51.478;-2.610;2024-01-27T00:49:26;102495.26;;;9.09;80.27
55277;BME280;41136;51.478;-2.610;2024-01-27T00:51:52;102499.04;;;8.92;80.62
55277;BME280;41136;51.478;-2.610;2024-01-27T00:54:17;102502.07;;;8.83;80.36
55277;BME280;41136;51.478;-2.610;2024-01-27T00:56:43;102506.81;;;9.10;80.12
55277;BME280;41136;51.478;-2.610;2024-01-27T00:59:08;102512.95;;;8.79;80.70
55277;BME280;41136;51.478;-2.610;2024-01-27T01:01:33;102513.26;;;8.19;81.21
55277;BME280;41136;51.478;-2.610;2024-01-27T01:03:58;102510.82;;;8.49;81.12
55277;BME280;41136;51.478;-2.610;2024-01-27T01:06:24;102502.57;;;8.61;81.11
55277;BME280;41136;51.478;-2.610;2024-01-27T01:08:49;102500.39;;;8.91;80.67
55277;BME280;41136;51.478;-2.610;2024-01-27T01:11:15;102492.28;;;8.47;80.43
55277;BME280;41136;51.478;-2.610;2024-01-27T01:13:40;102489.01;;;8.71;80.68
55277;BME280;41136;51.478;-2.610;2024-01-27T01:16:06;102486.77;;;8.25;81.42
55277;BME280;41136;51.478;-2.610;2024-01-27T01:18:31;102488.94;;;8.75;81.17
55277;BME280;41136;51.478;-2.610;2024-01-27T01:20:56;102493.88;;;9.03;81.46
55277;BME280;41136;51.478;-2.610;2024-01-27T01:23:22;102496.76;;;8.86;80.65
55277;BME280;41136;51.478;-2.610;2024-01-27T01:25:47;102489.06;;;8.61;80.79
55277;BME280;41136;51.478;-2.610;2024-01-27T01:28:13;102481.23;;;8.75;80.38
55277;BME280;41136;51.478;-2.610;2024-01-27T01:30:38;102483.71;;;8.22;80.61
55277;BME280;41136;51.478;-2.610;2024-01-27T01:33:04;102473.57;;;8.52;81.22
55277;BME280;41136;51.478;-2.610;2024-01-27T01:35:29;102468.48;;;8.73;80.86
55277;BME280;41136;51.478;-2.610;2024-01-27T01:37:54;102477.31;;;8.71;80.78
55277;BME280;41136;51.478;-2.610;2024-01-27T01:40:20;102486.08;;;8.38;81.22
55277;BME280;41136;51.478;-2.610;2024-01-27T01:42:50;102476.64;;;8.03;80.48
55277;BME280;41136;51.478;-2.610;2024-01-27T01:45:11;102472.46;;;8.11;81.15
55277;BME280;41136;51.478;-2.610;2024-01-27T01:47:36;102477.16;;;8.41;81.24
55277;BME280;41136;51.478;-2.610;2024-01-27T01:50:01;102492.25;;;8.08;80.75
55277;BME280;41136;51.478;-2.610;2024-01-27T01:52:26;102505.46;;;8.25;81.45
55277;BME280;41136;51.478;-2.610;2024-01-27T01:54:51;102490.66;;;8.46;80.73
55277;BME280;41136;51.478;-2.610;2024-01-27T01:57:17;102494.66;;;8.25;80.59
55277;BME280;41136;51.478;-2.610;2024-01-27T01:59:42;102490.40;;;7.84;81.26
55277;BME280;41136;51.478;-2.610;2024-01-27T02:02:08;102484.12;;;8.58;80.69
55277;BME280;41136;51.478;-2.610;2024-01-27T02:04:39;102482.21;;;8.79;80.31
55277;BME280;41136;51.478;-2.610;2024-01-27T02:06:58;102481.09;;;7.97;80.62
55277;BME280;41136;51.478;-2.610;2024-01-27T02:09:24;102473.16;;;8.31;80.36
55277;BME280;41136;51.478;-2.610;2024-01-27T02:11:49;102475.16;;;8.25;79.99
55277;BME280;41136;51.478;-2.610;2024-01-27T02:14:14;102481.75;;;8.09;80.01
55277;BME280;41136;51.478;-2.610;2024-01-27T02:16:40;102475.57;;;8.28;80.32
55277;BME280;41136;51.478;-2.610;2024-01-27T02:19:05;102478.84;;;8.42;80.07
55277;BME280;41136;51.478;-2.610;2024-01-27T02:21:31;102482.49;;;8.26;79.93
55277;BME280;41136;51.478;-2.610;2024-01-27T02:23:56;102487.38;;;8.22;80.02
55277;BME280;41136;51.478;-2.610;2024-01-27T02:26:21;102486.04;;;8.24;79.55
55277;BME280;41136;51.478;-2.610;2024-01-27T02:28:47;102485.97;;;8.48;79.25
55277;BME280;41136;51.478;-2.610;2024-01-27T02:31:12;102487.88;;;7.46;79.72
55277;BME280;41136;51.478;-2.610;2024-01-27T02:33:38;102475.71;;;8.07;79.25
55277;BME280;41136;51.478;-2.610;2024-01-27T02:36:03;102479.18;;;7.60;79.95
55277;BME280;41136;51.478;-2.610;2024-01-27T02:38:28;102472.44;;;8.07;80.18
55277;BME280;41136;51.478;-2.610;2024-01-27T02:40:54;102471.23;;;7.78;80.13
55277;BME280;41136;51.478;-2.610;2024-01-27T02:43:19;102467.29;;;7.00;80.41
55277;BME280;41136;51.478;-2.610;2024-01-27T02:45:45;102465.82;;;7.33;81.18
55277;BME280;41136;51.478;-2.610;2024-01-27T02:48:10;102458.13;;;7.92;80.38
55277;BME280;41136;51.478;-2.610;2024-01-27T02:50:35;102453.68;;;7.85;79.76
55277;BME280;41136;51.478;-2.610;2024-01-27T02:53:01;102450.07;;;8.44;79.17
55277;BME280;41136;51.478;-2.610;2024-01-27T02:55:26;102448.66;;;8.42;79.35
55277;BME280;41136;51.478;-2.610;2024-01-27T02:57:52;102445.97;;;7.97;78.91
55277;BME280;41136;51.478;-2.610;2024-01-27T03:00:17;102438.50;;;8.20;79.16
55277;BME280;41136;51.478;-2.610;2024-01-27T03:02:43;102437.79;;;8.09;78.85
55277;BME280;41136;51.478;-2.610;2024-01-27T03:05:08;102444.75;;;8.09;78.57
55277;BME280;41136;51.478;-2.610;2024-01-27T03:07:34;102454.41;;;8.68;78.49
55277;BME280;41136;51.478;-2.610;2024-01-27T03:09:59;102449.19;;;8.12;77.68
55277;BME280;41136;51.478;-2.610;2024-01-27T03:12:24;102450.15;;;8.67;77.23
55277;BME280;41136;51.478;-2.610;2024-01-27T03:14:50;102452.72;;;8.46;77.69
55277;BME280;41136;51.478;-2.610;2024-01-27T03:17:15;102447.71;;;8.18;77.96
55277;BME280;41136;51.478;-2.610;2024-01-27T03:19:40;102447.22;;;8.15;77.54
55277;BME280;41136;51.478;-2.610;2024-01-27T03:22:06;102454.16;;;8.43;76.74
55277;BME280;41136;51.478;-2.610;2024-01-27T03:24:31;102452.68;;;8.33;77.26
55277;BME280;41136;51.478;-2.610;2024-01-27T03:26:56;102455.30;;;7.84;77.60
55277;BME280;41136;51.478;-2.610;2024-01-27T03:29:22;102449.83;;;7.99;78.12
55277;BME280;41136;51.478;-2.610;2024-01-27T03:31:47;102439.43;;;8.45;76.66
55277;BME280;41136;51.478;-2.610;2024-01-27T03:34:12;102434.68;;;8.44;77.20
55277;BME280;41136;51.478;-2.610;2024-01-27T03:36:38;102430.57;;;8.39;76.93
55277;BME280;41136;51.478;-2.610;2024-01-27T03:39:03;102429.71;;;8.34;76.32
55277;BME280;41136;51.478;-2.610;2024-01-27T03:41:29;102430.88;;;7.97;77.35
55277;BME280;41136;51.478;-2.610;2024-01-27T03:43:54;102423.46;;;8.15;77.22
55277;BME280;41136;51.478;-2.610;2024-01-27T03:46:20;102422.92;;;8.09;77.41
55277;BME280;41136;51.478;-2.610;2024-01-27T03:48:45;102423.46;;;7.76;77.69
55277;BME280;41136;51.478;-2.610;2024-01-27T03:51:10;102421.79;;;8.15;77.55
55277;BME280;41136;51.478;-2.610;2024-01-27T03:53:36;102416.28;;;8.04;77.51
55277;BME280;41136;51.478;-2.610;2024-01-27T03:56:01;102410.22;;;8.02;77.26
55277;BME280;41136;51.478;-2.610;2024-01-27T03:58:27;102408.21;;;7.65;77.81
55277;BME280;41136;51.478;-2.610;2024-01-27T04:00:52;102403.74;;;7.89;78.01
55277;BME280;41136;51.478;-2.610;2024-01-27T04:03:18;102406.32;;;7.88;77.86
55277;BME280;41136;51.478;-2.610;2024-01-27T04:05:43;102409.45;;;8.01;78.00
55277;BME280;41136;51.478;-2.610;2024-01-27T04:08:08;102412.31;;;7.86;78.48
55277;BME280;41136;51.478;-2.610;2024-01-27T04:10:34;102406.88;;;8.04;78.36
55277;BME280;41136;51.478;-2.610;2024-01-27T04:12:59;102395.84;;;7.95;78.07
55277;BME280;41136;51.478;-2.610;2024-01-27T04:15:24;102404.81;;;6.88;80.00
55277;BME280;41136;51.478;-2.610;2024-01-27T04:17:49;102410.19;;;7.71;79.80
55277;BME280;41136;51.478;-2.610;2024-01-27T04:20:15;102410.22;;;8.10;78.73
55277;BME280;41136;51.478;-2.610;2024-01-27T04:22:40;102408.13;;;7.84;79.17
55277;BME280;41136;51.478;-2.610;2024-01-27T04:25:07;102406.84;;;7.62;78.94
55277;BME280;41136;51.478;-2.610;2024-01-27T04:27:36;102405.46;;;7.80;79.80
55277;BME280;41136;51.478;-2.610;2024-01-27T04:29:56;102407.71;;;7.92;78.98
55277;BME280;41136;51.478;-2.610;2024-01-27T04:32:22;102419.53;;;8.30;78.66
55277;BME280;41136;51.478;-2.610;2024-01-27T04:34:47;102419.59;;;7.51;79.83
55277;BME280;41136;51.478;-2.610;2024-01-27T04:37:13;102413.19;;;8.55;78.76
55277;BME280;41136;51.478;-2.610;2024-01-27T04:39:39;102403.63;;;8.49;78.29
55277;BME280;41136;51.478;-2.610;2024-01-27T04:42:04;102393.25;;;7.95;78.81
55277;BME280;41136;51.478;-2.610;2024-01-27T04:44:29;102381.33;;;8.05;78.92
55277;BME280;41136;51.478;-2.610;2024-01-27T04:46:54;102380.18;;;8.43;78.12
55277;BME280;41136;51.478;-2.610;2024-01-27T04:49:19;102391.45;;;8.44;78.04
55277;BME280;41136;51.478;-2.610;2024-01-27T04:51:45;102394.81;;;8.44;78.08
55277;BME280;41136;51.478;-2.610;2024-01-27T04:54:10;102392.91;;;8.34;77.43
55277;BME280;41136;51.478;-2.610;2024-01-27T04:56:35;102399.61;;;8.48;77.72
55277;BME280;41136;51.478;-2.610;2024-01-27T04:59:01;102399.71;;;8.56;77.80
55277;BME280;41136;51.478;-2.610;2024-01-27T05:01:26;102406.35;;;8.46;77.65
55277;BME280;41136;51.478;-2.610;2024-01-27T05:03:52;102400.20;;;8.11;77.49
55277;BME280;41136;51.478;-2.610;2024-01-27T05:14:50;102409.30;;;9.47;70.60
55277;BME280;41136;51.478;-2.610;2024-01-27T05:17:16;102411.64;;;8.73;69.79
55277;BME280;41136;51.478;-2.610;2024-01-27T05:19:41;102403.41;;;8.33;70.84
55277;BME280;41136;51.478;-2.610;2024-01-27T05:22:06;102394.28;;;8.32;71.00
55277;BME280;41136;51.478;-2.610;2024-01-27T05:24:32;102385.77;;;8.79;71.29
55277;BME280;41136;51.478;-2.610;2024-01-27T05:26:57;102381.69;;;9.22;72.71
55277;BME280;41136;51.478;-2.610;2024-01-27T05:29:23;102394.29;;;8.65;73.73
55277;BME280;41136;51.478;-2.610;2024-01-27T05:31:48;102387.85;;;8.40;74.62
55277;BME280;41136;51.478;-2.610;2024-01-27T05:34:13;102373.01;;;9.07;74.10
55277;BME280;41136;51.478;-2.610;2024-01-27T05:36:39;102373.20;;;8.86;74.32
55277;BME280;41136;51.478;-2.610;2024-01-27T05:39:04;102374.85;;;8.64;74.63
55277;BME280;41136;51.478;-2.610;2024-01-27T05:41:30;102388.08;;;8.39;75.38
55277;BME280;41136;51.478;-2.610;2024-01-27T05:43:55;102390.35;;;8.41;75.79
55277;BME280;41136;51.478;-2.610;2024-01-27T05:46:21;102386.24;;;8.51;75.66
55277;BME280;41136;51.478;-2.610;2024-01-27T05:48:46;102376.71;;;7.96;76.26
55277;BME280;41136;51.478;-2.610;2024-01-27T05:51:12;102388.76;;;8.51;75.32
55277;BME280;41136;51.478;-2.610;2024-01-27T05:53:37;102388.22;;;8.42;76.16
55277;BME280;41136;51.478;-2.610;2024-01-27T05:56:03;102386.19;;;8.15;76.48
55277;BME280;41136;51.478;-2.610;2024-01-27T05:58:28;102389.39;;;8.09;76.45
55277;BME280;41136;51.478;-2.610;2024-01-27T06:00:53;102379.03;;;7.82;77.07
55277;BME280;41136;51.478;-2.610;2024-01-27T06:03:19;102378.12;;;8.10;76.83
55277;BME280;41136;51.478;-2.610;2024-01-27T06:05:44;102376.89;;;7.99;76.62
55277;BME280;41136;51.478;-2.610;2024-01-27T06:08:10;102378.72;;;8.36;76.57
55277;BME280;41136;51.478;-2.610;2024-01-27T06:10:35;102385.57;;;8.06;76.65
55277;BME280;41136;51.478;-2.610;2024-01-27T06:13:01;102391.85;;;7.91;77.01
55277;BME280;41136;51.478;-2.610;2024-01-27T06:15:26;102391.31;;;7.96;77.18
55277;BME280;41136;51.478;-2.610;2024-01-27T06:17:51;102389.26;;;8.58;77.18
55277;BME280;41136;51.478;-2.610;2024-01-27T06:20:16;102382.86;;;8.32;76.90
55277;BME280;41136;51.478;-2.610;2024-01-27T06:22:42;102380.73;;;8.08;77.33
55277;BME280;41136;51.478;-2.610;2024-01-27T06:25:08;102368.74;;;7.78;77.35
55277;BME280;41136;51.478;-2.610;2024-01-27T06:27:32;102370.76;;;8.37;77.39
55277;BME280;41136;51.478;-2.610;2024-01-27T06:29:58;102370.84;;;7.75;78.14
55277;BME280;41136;51.478;-2.610;2024-01-27T06:32:23;102372.00;;;8.14;78.26
55277;BME280;41136;51.478;-2.610;2024-01-27T06:34:49;102368.95;;;8.28;78.31
55277;BME280;41136;51.478;-2.610;2024-01-27T06:37:14;102378.37;;;7.66;78.58
55277;BME280;41136;51.478;-2.610;2024-01-27T06:39:39;102378.50;;;7.70;79.46
55277;BME280;41136;51.478;-2.610;2024-01-27T06:42:05;102380.72;;;7.95;79.17
55277;BME280;41136;51.478;-2.610;2024-01-27T06:44:31;102375.12;;;8.24;79.40
55277;BME280;41136;51.478;-2.610;2024-01-27T06:46:56;102368.62;;;8.42;79.37
55277;BME280;41136;51.478;-2.610;2024-01-27T06:49:22;102363.00;;;7.97;79.82
55277;BME280;41136;51.478;-2.610;2024-01-27T06:51:47;102362.79;;;8.02;80.13
55277;BME280;41136;51.478;-2.610;2024-01-27T06:54:12;102361.83;;;8.13;79.57
55277;BME280;41136;51.478;-2.610;2024-01-27T06:56:37;102365.83;;;7.89;79.70
55277;BME280;41136;51.478;-2.610;2024-01-27T06:59:03;102366.00;;;8.27;79.56
55277;BME280;41136;51.478;-2.610;2024-01-27T07:01:28;102361.79;;;7.84;80.44
55277;BME280;41136;51.478;-2.610;2024-01-27T07:03:53;102363.01;;;7.93;80.05
55277;BME280;41136;51.478;-2.610;2024-01-27T07:06:19;102362.38;;;7.92;80.58
55277;BME280;41136;51.478;-2.610;2024-01-27T07:08:44;102354.99;;;7.74;80.66
55277;BME280;41136;51.478;-2.610;2024-01-27T07:11:09;102344.72;;;7.85;81.13
55277;BME280;41136;51.478;-2.610;2024-01-27T07:13:35;102342.52;;;7.84;81.33
55277;BME280;41136;51.478;-2.610;2024-01-27T07:16:00;102347.40;;;8.07;81.19
55277;BME280;41136;51.478;-2.610;2024-01-27T07:18:26;102343.07;;;7.61;81.30
55277;BME280;41136;51.478;-2.610;2024-01-27T07:20:51;102348.96;;;8.02;81.58
55277;BME280;41136;51.478;-2.610;2024-01-27T07:23:17;102350.30;;;7.64;81.54
55277;BME280;41136;51.478;-2.610;2024-01-27T07:25:42;102349.09;;;8.06;81.45
55277;BME280;41136;51.478;-2.610;2024-01-27T07:28:08;102349.48;;;8.22;81.33
55277;BME280;41136;51.478;-2.610;2024-01-27T07:30:33;102355.21;;;8.02;80.84
55277;BME280;41136;51.478;-2.610;2024-01-27T07:32:58;102355.25;;;7.88;81.02
55277;BME280;41136;51.478;-2.610;2024-01-27T07:35:23;102356.52;;;7.76;81.69
55277;BME280;41136;51.478;-2.610;2024-01-27T07:37:49;102355.42;;;8.17;81.16
55277;BME280;41136;51.478;-2.610;2024-01-27T07:40:14;102356.87;;;8.09;81.15
55277;BME280;41136;51.478;-2.610;2024-01-27T07:42:40;102354.96;;;8.16;81.50
55277;BME280;41136;51.478;-2.610;2024-01-27T07:45:06;102356.86;;;7.94;81.29
55277;BME280;41136;51.478;-2.610;2024-01-27T07:47:30;102353.15;;;7.94;81.67
55277;BME280;41136;51.478;-2.610;2024-01-27T07:49:56;102355.73;;;8.44;81.23
55277;BME280;41136;51.478;-2.610;2024-01-27T07:52:21;102352.13;;;8.35;80.69
55277;BME280;41136;51.478;-2.610;2024-01-27T07:54:47;102358.29;;;7.90;81.19
55277;BME280;41136;51.478;-2.610;2024-01-27T07:57:12;102359.98;;;8.04;81.57
55277;BME280;41136;51.478;-2.610;2024-01-27T07:59:38;102359.22;;;8.12;81.62
55277;BME280;41136;51.478;-2.610;2024-01-27T08:02:03;102360.64;;;8.32;81.30
55277;BME280;41136;51.478;-2.610;2024-01-27T08:04:28;102355.64;;;8.07;80.79
55277;BME280;41136;51.478;-2.610;2024-01-27T08:06:54;102359.83;;;8.17;81.04
55277;BME280;41136;51.478;-2.610;2024-01-27T08:09:19;102361.45;;;8.00;81.27
55277;BME280;41136;51.478;-2.610;2024-01-27T08:11:45;102356.57;;;7.81;81.70
55277;BME280;41136;51.478;-2.610;2024-01-27T08:14:10;102357.16;;;7.66;81.49
55277;BME280;41136;51.478;-2.610;2024-01-27T08:16:36;102364.39;;;7.82;80.53
55277;BME280;41136;51.478;-2.610;2024-01-27T08:19:01;102358.55;;;8.40;79.38
55277;BME280;41136;51.478;-2.610;2024-01-27T08:21:27;102350.99;;;8.98;77.93
55277;BME280;41136;51.478;-2.610;2024-01-27T08:23:52;102353.83;;;8.85;78.23
55277;BME280;41136;51.478;-2.610;2024-01-27T08:26:17;102353.31;;;8.58;78.95
55277;BME280;41136;51.478;-2.610;2024-01-27T08:28:43;102354.62;;;8.65;78.97
55277;BME280;41136;51.478;-2.610;2024-01-27T08:31:09;102353.50;;;8.74;79.39
55277;BME280;41136;51.478;-2.610;2024-01-27T08:33:34;102350.97;;;8.24;79.90
55277;BME280;41136;51.478;-2.610;2024-01-27T08:35:59;102347.78;;;8.66;80.25
55277;BME280;41136;51.478;-2.610;2024-01-27T08:38:25;102348.93;;;8.56;80.05
55277;BME280;41136;51.478;-2.610;2024-01-27T08:40:50;102352.54;;;8.57;80.17
55277;BME280;41136;51.478;-2.610;2024-01-27T08:43:15;102352.48;;;8.52;80.84
55277;BME280;41136;51.478;-2.610;2024-01-27T08:45:41;102359.41;;;8.34;80.54
55277;BME280;41136;51.478;-2.610;2024-01-27T08:48:07;102366.55;;;8.46;80.23
55277;BME280;41136;51.478;-2.610;2024-01-27T08:50:32;102364.46;;;8.75;80.13
55277;BME280;41136;51.478;-2.610;2024-01-27T08:52:57;102362.53;;;8.57;80.61
55277;BME280;41136;51.478;-2.610;2024-01-27T08:55:23;102363.17;;;8.56;80.74
55277;BME280;41136;51.478;-2.610;2024-01-27T08:57:48;102363.68;;;8.61;80.32
55277;BME280;41136;51.478;-2.610;2024-01-27T09:00:14;102369.38;;;8.53;80.41
55277;BME280;41136;51.478;-2.610;2024-01-27T09:02:39;102371.49;;;9.23;80.54
55277;BME280;41136;51.478;-2.610;2024-01-27T09:05:05;102383.33;;;8.87;80.49
55277;BME280;41136;51.478;-2.610;2024-01-27T09:07:30;102389.73;;;8.70;80.76
55277;BME280;41136;51.478;-2.610;2024-01-27T09:09:55;102392.71;;;8.75;81.76
55277;BME280;41136;51.478;-2.610;2024-01-27T09:12:21;102395.09;;;8.85;81.86
55277;BME280;41136;51.478;-2.610;2024-01-27T09:14:46;102397.40;;;8.75;80.96
55277;BME280;41136;51.478;-2.610;2024-01-27T09:17:11;102402.58;;;8.83;81.72
55277;BME280;41136;51.478;-2.610;2024-01-27T09:19:37;102403.97;;;8.39;82.30
55277;BME280;41136;51.478;-2.610;2024-01-27T09:22:02;102403.78;;;8.80;82.44
55277;BME280;41136;51.478;-2.610;2024-01-27T09:24:27;102403.86;;;8.87;82.29
55277;BME280;41136;51.478;-2.610;2024-01-27T09:26:53;102406.07;;;8.97;82.71
55277;BME280;41136;51.478;-2.610;2024-01-27T09:29:18;102410.44;;;9.19;82.36
55277;BME280;41136;51.478;-2.610;2024-01-27T09:31:44;102413.28;;;9.29;82.23
55277;BME280;41136;51.478;-2.610;2024-01-27T09:34:09;102414.76;;;9.03;82.40
55277;BME280;41136;51.478;-2.610;2024-01-27T09:36:35;102416.03;;;9.06;82.94
55277;BME280;41136;51.478;-2.610;2024-01-27T09:39:00;102413.72;;;8.96;83.23
55277;BME280;41136;51.478;-2.610;2024-01-27T09:41:30;102406.13;;;8.83;83.42
55277;BME280;41136;51.478;-2.610;2024-01-27T09:43:51;102400.54;;;9.35;83.32
55277;BME280;41136;51.478;-2.610;2024-01-27T09:46:17;102387.25;;;8.76;83.26
55277;BME280;41136;51.478;-2.610;2024-01-27T09:48:41;102383.26;;;9.55;83.38
55277;BME280;41136;51.478;-2.610;2024-01-27T09:51:08;102383.65;;;9.66;83.06
55277;BME280;41136;51.478;-2.610;2024-01-27T09:53:32;102377.65;;;9.96;82.54
55277;BME280;41136;51.478;-2.610;2024-01-27T09:55:58;102371.79;;;9.45;82.55
55277;BME280;41136;51.478;-2.610;2024-01-27T09:58:23;102379.18;;;9.61;82.87
55277;BME280;41136;51.478;-2.610;2024-01-27T10:00:49;102389.36;;;9.87;82.27
55277;BME280;41136;51.478;-2.610;2024-01-27T10:03:13;102386.17;;;9.76;82.37
55277;BME280;41136;51.478;-2.610;2024-01-27T10:05:41;102388.25;;;9.66;82.65
55277;BME280;41136;51.478;-2.610;2024-01-27T10:08:06;102390.72;;;9.62;83.46
55277;BME280;41136;51.478;-2.610;2024-01-27T10:10:29;102395.03;;;9.87;83.07
55277;BME280;41136;51.478;-2.610;2024-01-27T10:12:56;102389.32;;;9.98;82.01
55277;BME280;41136;51.478;-2.610;2024-01-27T10:15:20;102389.60;;;9.82;82.24
55277;BME280;41136;51.478;-2.610;2024-01-27T10:17:45;102387.41;;;9.78;81.52
55277;BME280;41136;51.478;-2.610;2024-01-27T10:20:11;102389.77;;;9.97;82.59
55277;BME280;41136;51.478;-2.610;2024-01-27T10:22:37;102382.63;;;10.33;81.28
55277;BME280;41136;51.478;-2.610;2024-01-27T10:25:01;102382.49;;;10.08;81.75
55277;BME280;41136;51.478;-2.610;2024-01-27T10:27:27;102387.46;;;10.05;81.73
55277;BME280;41136;51.478;-2.610;2024-01-27T10:29:52;102385.04;;;10.10;82.27
55277;BME280;41136;51.478;-2.610;2024-01-27T10:32:17;102383.37;;;10.01;82.98
55277;BME280;41136;51.478;-2.610;2024-01-27T10:34:43;102379.15;;;10.26;81.36
55277;BME280;41136;51.478;-2.610;2024-01-27T10:37:12;102379.53;;;9.92;82.62
55277;BME280;41136;51.478;-2.610;2024-01-27T10:39:33;102377.76;;;10.81;81.07
55277;BME280;41136;51.478;-2.610;2024-01-27T10:42:01;102377.82;;;10.65;80.25
55277;BME280;41136;51.478;-2.610;2024-01-27T10:44:25;102372.48;;;10.29;80.45
55277;BME280;41136;51.478;-2.610;2024-01-27T10:46:51;102368.75;;;10.36;81.16
55277;BME280;41136;51.478;-2.610;2024-01-27T10:49:16;102364.52;;;10.38;80.73
55277;BME280;41136;51.478;-2.610;2024-01-27T10:51:45;102365.62;;;10.60;81.63
55277;BME280;41136;51.478;-2.610;2024-01-27T10:54:07;102366.62;;;10.22;81.68
55277;BME280;41136;51.478;-2.610;2024-01-27T10:56:32;102373.95;;;10.51;82.01
55277;BME280;41136;51.478;-2.610;2024-01-27T10:58:58;102377.33;;;10.62;80.93
55277;BME280;41136;51.478;-2.610;2024-01-27T11:01:22;102377.61;;;10.41;81.68
55277;BME280;41136;51.478;-2.610;2024-01-27T11:03:48;102376.39;;;10.52;81.78
55277;BME280;41136;51.478;-2.610;2024-01-27T11:06:13;102378.20;;;10.51;81.38
55277;BME280;41136;51.478;-2.610;2024-01-27T11:08:38;102384.49;;;10.98;81.27
55277;BME280;41136;51.478;-2.610;2024-01-27T11:11:04;102377.88;;;10.77;81.51
55277;BME280;41136;51.478;-2.610;2024-01-27T11:13:29;102381.58;;;10.60;81.43
55277;BME280;41136;51.478;-2.610;2024-01-27T11:15:54;102375.09;;;10.80;81.76
55277;BME280;41136;51.478;-2.610;2024-01-27T11:18:19;102378.65;;;10.62;82.55
55277;BME280;41136;51.478;-2.610;2024-01-27T11:20:44;102377.41;;;10.81;82.89
55277;BME280;41136;51.478;-2.610;2024-01-27T11:23:10;102375.76;;;10.78;83.62
55277;BME280;41136;51.478;-2.610;2024-01-27T11:25:35;102373.42;;;10.22;84.84
55277;BME280;41136;51.478;-2.610;2024-01-27T11:30:28;102366.25;;;10.62;84.76
55277;BME280;41136;51.478;-2.610;2024-01-27T11:32:52;102369.29;;;10.73;85.43
55277;BME280;41136;51.478;-2.610;2024-01-27T11:35:17;102372.20;;;10.77;84.71
55277;BME280;41136;51.478;-2.610;2024-01-27T11:37:42;102368.29;;;11.17;84.14
55277;BME280;41136;51.478;-2.610;2024-01-27T11:40:08;102359.54;;;11.63;84.42
55277;BME280;41136;51.478;-2.610;2024-01-27T11:42:32;102360.68;;;11.58;84.69
55277;BME280;41136;51.478;-2.610;2024-01-27T11:44:57;102356.27;;;11.57;84.77
55277;BME280;41136;51.478;-2.610;2024-01-27T11:47:23;102357.37;;;11.52;84.66
55277;BME280;41136;51.478;-2.610;2024-01-27T11:49:52;102353.93;;;11.81;85.05
55277;BME280;41136;51.478;-2.610;2024-01-27T11:52:14;102354.36;;;11.28;84.47
55277;BME280;41136;51.478;-2.610;2024-01-27T11:54:39;102357.71;;;11.92;84.40
55277;BME280;41136;51.478;-2.610;2024-01-27T11:57:04;102358.01;;;11.52;83.59
55277;BME280;41136;51.478;-2.610;2024-01-27T11:59:30;102339.67;;;11.91;83.56
55277;BME280;41136;51.478;-2.610;2024-01-27T12:01:55;102333.48;;;12.09;83.56
55277;BME280;41136;51.478;-2.610;2024-01-27T12:04:20;102326.15;;;11.66;83.68
55277;BME280;41136;51.478;-2.610;2024-01-27T12:06:46;102318.23;;;10.81;84.13
55277;BME280;41136;51.478;-2.610;2024-01-27T12:09:11;102315.74;;;11.30;83.86
55277;BME280;41136;51.478;-2.610;2024-01-27T12:11:38;102320.74;;;11.43;83.87
55277;BME280;41136;51.478;-2.610;2024-01-27T12:14:02;102326.13;;;11.03;84.16
55277;BME280;41136;51.478;-2.610;2024-01-27T12:16:28;102317.99;;;10.56;83.75
55277;BME280;41136;51.478;-2.610;2024-01-27T12:18:53;102315.73;;;11.22;83.69
55277;BME280;41136;51.478;-2.610;2024-01-27T12:21:19;102301.74;;;10.73;83.22
55277;BME280;41136;51.478;-2.610;2024-01-27T12:23:49;102302.45;;;10.76;82.41
55277;BME280;41136;51.478;-2.610;2024-01-27T12:26:14;102303.93;;;10.80;83.09
55277;BME280;41136;51.478;-2.610;2024-01-27T12:28:34;102284.51;;;10.59;82.75
55277;BME280;41136;51.478;-2.610;2024-01-27T12:31:00;102263.98;;;10.84;83.48
55277;BME280;41136;51.478;-2.610;2024-01-27T12:33:25;102275.37;;;11.18;82.17
55277;BME280;41136;51.478;-2.610;2024-01-27T12:35:50;102270.32;;;11.29;81.96
55277;BME280;41136;51.478;-2.610;2024-01-27T12:38:17;102275.80;;;11.22;81.19
55277;BME280;41136;51.478;-2.610;2024-01-27T12:40:42;102277.27;;;11.11;81.73
55277;BME280;41136;51.478;-2.610;2024-01-27T12:43:06;102277.05;;;11.32;81.80
55277;BME280;41136;51.478;-2.610;2024-01-27T12:45:32;102267.07;;;11.51;80.14
55277;BME280;41136;51.478;-2.610;2024-01-27T12:47:57;102256.54;;;11.15;79.42